Time;durP1;ratioP1;P1;durP2;ratioP2;P2;SDS_P1;SDS_P2;PMS_P1;PMS_P2;Temp;Humidity;BMP_temperature;BMP_pressure;BME280_temperature;BME280_humidity;BME280_pressure;Samples;Min_cycle;Max_cycle;Signal;HPM_P1;HPM_P2
2022/06/03 00:01:38;;;;;;;1999.90;999.90;;;8.70;99.90;;;;;;5071262;28;20175;-76
2022/06/03 00:04:52;;;;;;;1999.90;999.90;;;8.70;99.90;;;;;;5062217;28;20130;-76
2022/06/03 00:07:17;;;;;;;1999.90;999.90;;;8.60;99.90;;;;;;4999770;28;20058;-76
2022/06/03 00:09:46;;;;;;;1999.90;999.90;;;8.60;99.90;;;;;;5063615;28;20059;-76
2022/06/03 00:12:52;;;;;;;1999.90;999.90;;;8.50;99.90;;;;;;5070529;28;20047;-76
2022/06/03 00:15:32;;;;;;;1999.90;999.90;;;8.50;99.90;;;;;;5034675;28;20051;-76
2022/06/03 00:18:20;;;;;;;1999.90;999.90;;;8.50;99.90;;;;;;5038973;28;20044;-77
2022/06/03 00:21:05;;;;;;;1999.90;999.90;;;8.40;99.90;;;;;;5074017;28;20043;-76
2022/06/03 00:23:46;;;;;;;1999.90;999.90;;;8.40;99.90;;;;;;5069382;28;20047;-76
2022/06/03 00:26:20;;;;;;;1999.90;999.90;;;8.40;99.90;;;;;;5067200;28;20067;-76
2022/06/03 00:29:17;;;;;;;1999.90;999.90;;;8.40;99.90;;;;;;5045495;28;20036;-76
2022/06/03 00:31:46;;;;;;;1999.90;999.90;;;8.40;99.90;;;;;;5065651;28;20047;-76
2022/06/03 00:34:29;;;;;;;1999.90;999.90;;;8.40;99.90;;;;;;5070098;28;20047;-76
2022/06/03 00:37:19;;;;;;;1999.90;999.90;;;8.40;99.90;;;;;;5057356;28;20059;-76
2022/06/03 00:39:54;;;;;;;1999.90;999.90;;;8.40;99.90;;;;;;5070218;28;20050;-76
2022/06/03 00:42:21;;;;;;;1999.90;999.90;;;8.40;99.90;;;;;;5063351;28;20047;-76
2022/06/03 00:45:12;;;;;;;1999.90;999.90;;;8.40;99.90;;;;;;5068048;28;20127;-76
2022/06/03 00:47:54;;;;;;;1999.90;999.90;;;8.30;99.90;;;;;;5054010;28;20420;-76
2022/06/03 00:51:16;;;;;;;1999.90;999.90;;;8.30;99.90;;;;;;5069587;28;20044;-76
2022/06/03 00:54:22;;;;;;;1999.90;999.90;;;8.40;99.90;;;;;;4969797;28;20046;-76
2022/06/03 00:57:02;;;;;;;1999.90;999.90;;;8.40;99.90;;;;;;4914205;29;20047;-76
2022/06/03 00:59:46;;;;;;;1999.90;999.90;;;8.30;99.90;;;;;;4922632;28;20449;-77
2022/06/03 01:02:29;;;;;;;1999.90;999.90;;;8.30;99.90;;;;;;4930708;29;20140;-76
2022/06/03 01:05:23;;;;;;;1999.90;999.90;;;8.40;99.90;;;;;;4922745;28;20055;-76
2022/06/03 01:07:56;;;;;;;1999.90;999.90;;;8.40;99.90;;;;;;4961196;28;20131;-76
2022/06/03 01:10:52;;;;;;;1999.90;999.90;;;8.40;99.90;;;;;;4932986;29;20083;-76
2022/06/03 01:13:29;;;;;;;1999.90;999.90;;;8.40;99.90;;;;;;4932153;28;20057;-76
2022/06/03 01:16:26;;;;;;;1999.90;999.90;;;8.30;99.90;;;;;;4930751;29;20032;-76
2022/06/03 01:18:51;;;;;;;1999.90;999.90;;;8.40;99.90;;;;;;4925240;29;20055;-76
2022/06/03 01:21:21;;;;;;;1999.90;999.90;;;8.30;99.90;;;;;;4938442;28;20054;-76
2022/06/03 01:24:01;;;;;;;1999.90;999.90;;;8.30;99.90;;;;;;4946717;28;20045;-76
2022/06/03 01:27:01;;;;;;;1999.90;999.90;;;8.30;99.90;;;;;;4994153;28;20049;-76
2022/06/03 01:30:00;;;;;;;1999.90;999.90;;;8.20;99.90;;;;;;5009487;28;20041;-76
2022/06/03 01:32:49;;;;;;;1999.90;999.90;;;8.30;99.90;;;;;;5012727;28;20080;-76
2022/06/03 01:35:34;;;;;;;1999.90;999.90;;;8.30;99.90;;;;;;5056356;28;20040;-76
2022/06/03 01:38:27;;;;;;;1999.90;999.90;;;8.20;99.90;;;;;;5051684;28;20404;-76
2022/06/03 01:41:24;;;;;;;1999.90;999.90;;;8.20;99.90;;;;;;5070335;28;20417;-76
2022/06/03 01:43:56;;;;;;;1999.90;999.90;;;8.20;99.90;;;;;;5056447;28;20066;-76
2022/06/03 01:46:30;;;;;;;1999.90;999.90;;;8.20;99.90;;;;;;5050754;28;20037;-76
2022/06/03 01:48:56;;;;;;;1999.90;999.90;;;8.20;99.90;;;;;;5065163;28;20481;-76
2022/06/03 01:51:55;;;;;;;1999.90;999.90;;;8.20;99.90;;;;;;5036411;28;20044;-76
2022/06/03 01:54:49;;;;;;;1999.90;999.90;;;8.30;99.90;;;;;;5062812;28;20036;-76
2022/06/03 01:57:33;;;;;;;;;;;8.30;99.90;;;;;;5078878;28;20572;-76
2022/06/03 02:00:19;;;;;;;1999.90;999.90;;;8.20;99.90;;;;;;5048090;28;19920;-76
2022/06/03 02:03:05;;;;;;;1999.90;999.90;;;8.20;99.90;;;;;;5075925;28;20055;-76
2022/06/03 02:05:59;;;;;;;1999.90;999.90;;;8.20;99.90;;;;;;5059694;28;20075;-76
2022/06/03 02:08:39;;;;;;;1999.90;999.90;;;8.20;99.90;;;;;;5051581;28;20078;-76
2022/06/03 02:11:40;;;;;;;1999.90;999.90;;;8.20;99.90;;;;;;5051219;28;20519;-76
2022/06/03 02:14:05;;;;;;;1999.90;999.90;;;8.20;99.90;;;;;;5045138;28;20044;-76
2022/06/03 02:17:15;;;;;;;1999.90;999.90;;;8.20;99.90;;;;;;5056456;28;20452;-76
2022/06/03 02:20:06;;;;;;;1999.90;999.90;;;8.10;99.90;;;;;;5051599;28;20040;-76
2022/06/03 02:22:34;;;;;;;1999.90;999.90;;;8.10;99.90;;;;;;5072745;28;20051;-76
2022/06/03 02:25:23;;;;;;;1999.90;999.90;;;8.10;99.90;;;;;;5072830;28;20056;-76
2022/06/03 02:28:20;;;;;;;1999.90;999.90;;;8.10;99.90;;;;;;5081358;28;20032;-76
2022/06/03 02:31:24;;;;;;;1999.90;999.90;;;8.10;99.90;;;;;;5091999;28;20071;-76
2022/06/03 02:34:04;;;;;;;1999.90;999.90;;;8.10;99.90;;;;;;5058357;28;20414;-76
2022/06/03 02:36:58;;;;;;;1999.90;999.90;;;8.00;99.90;;;;;;5063168;28;20437;-76
2022/06/03 02:39:52;;;;;;;1999.90;999.90;;;8.00;99.90;;;;;;5043803;28;20082;-76
2022/06/03 02:42:43;;;;;;;1999.90;999.90;;;8.00;99.90;;;;;;5046687;28;20036;-76
2022/06/03 02:45:27;;;;;;;1999.90;999.90;;;8.00;99.90;;;;;;5077731;28;20048;-76
2022/06/03 02:48:30;;;;;;;1999.90;999.90;;;7.90;99.90;;;;;;5073682;28;20040;-76
2022/06/03 02:51:33;;;;;;;1999.90;999.90;;;7.90;99.90;;;;;;5064834;28;20401;-76
2022/06/03 02:54:02;;;;;;;;;;;7.90;99.90;;;;;;5047803;28;20036;-76
2022/06/03 02:56:49;;;;;;;1999.90;999.90;;;7.90;99.90;;;;;;5061193;28;19927;-76
2022/06/03 02:59:41;;;;;;;1999.90;999.90;;;7.90;99.90;;;;;;5060587;28;20055;-76
2022/06/03 03:02:15;;;;;;;1999.90;999.90;;;7.80;99.90;;;;;;5049430;28;20078;-76
2022/06/03 03:05:12;;;;;;;1999.90;999.90;;;7.80;99.90;;;;;;5057280;28;20048;-76
2022/06/03 03:08:03;;;;;;;1999.90;999.90;;;7.80;99.90;;;;;;5052709;28;20386;-76
2022/06/03 03:10:47;;;;;;;1999.90;999.90;;;7.80;99.90;;;;;;5079282;28;20044;-76
2022/06/03 03:13:46;;;;;;;1999.90;999.90;;;7.80;99.90;;;;;;5072630;28;20122;-76
2022/06/03 03:16:30;;;;;;;1999.90;999.90;;;7.80;99.90;;;;;;5062113;28;20075;-76
2022/06/03 03:19:14;;;;;;;1999.90;999.90;;;7.70;99.90;;;;;;5074220;28;20042;-76
2022/06/03 03:21:42;;;;;;;1999.90;999.90;;;7.80;99.90;;;;;;5065407;28;20048;-76
2022/06/03 03:24:32;;;;;;;1999.90;999.90;;;7.80;99.90;;;;;;5064217;28;20109;-76
2022/06/03 03:27:41;;;;;;;1999.90;999.90;;;7.80;99.90;;;;;;5052837;28;20136;-76
2022/06/03 03:30:07;;;;;;;1999.90;999.90;;;7.80;99.90;;;;;;5059712;28;20090;-76
2022/06/03 03:33:05;;;;;;;1999.90;999.90;;;7.90;99.90;;;;;;5078017;28;20560;-76
2022/06/03 03:35:52;;;;;;;1999.90;999.90;;;7.90;99.90;;;;;;5073437;28;20044;-76
2022/06/03 03:38:38;;;;;;;1999.90;999.90;;;8.00;99.90;;;;;;5066074;28;20050;-76
2022/06/03 03:41:22;;;;;;;1999.90;999.90;;;8.00;99.90;;;;;;5058202;28;20055;-76
2022/06/03 03:44:12;;;;;;;1999.90;999.90;;;8.10;99.90;;;;;;5064206;28;20046;-76
2022/06/03 03:47:05;;;;;;;1999.90;999.90;;;8.10;99.90;;;;;;5067372;28;20044;-76
2022/06/03 03:49:52;;;;;;;1999.90;999.90;;;8.20;99.90;;;;;;5082510;28;20052;-76
2022/06/03 03:52:48;;;;;;;1999.90;999.90;;;8.30;99.90;;;;;;5043767;28;20059;-76
2022/06/03 03:55:26;;;;;;;1999.90;999.90;;;8.40;99.90;;;;;;5065102;28;20063;-76
2022/06/03 03:58:25;;;;;;;1999.90;999.90;;;8.50;99.90;;;;;;5048136;28;20370;-76
2022/06/03 04:01:06;;;;;;;1999.90;999.90;;;8.60;99.90;;;;;;5050753;28;20040;-76
2022/06/03 04:03:34;;;;;;;1999.90;999.90;;;8.60;99.90;;;;;;5072636;28;20569;-76
2022/06/03 04:06:12;;;;;;;1999.90;999.90;;;8.70;99.90;;;;;;5062407;28;20040;-76
2022/06/03 04:09:15;;;;;;;1999.90;999.90;;;8.80;99.90;;;;;;5043741;28;20040;-76
2022/06/03 04:11:54;;;;;;;1999.90;999.90;;;8.90;99.90;;;;;;5064722;28;20404;-76
2022/06/03 04:14:26;;;;;;;1999.90;999.90;;;9.00;99.90;;;;;;5066577;28;20516;-76
2022/06/03 04:17:10;;;;;;;1999.90;999.90;;;9.10;99.90;;;;;;5062724;28;20119;-76
2022/06/03 04:19:53;;;;;;;1999.90;999.90;;;9.30;99.90;;;;;;5061984;28;20051;-76
2022/06/03 04:22:36;;;;;;;1999.90;999.90;;;9.30;99.90;;;;;;5055819;28;20040;-76
2022/06/03 04:25:31;;;;;;;1999.90;999.90;;;9.40;99.90;;;;;;5044549;28;20454;-76
2022/06/03 04:28:30;;;;;;;1999.90;999.90;;;9.50;99.90;;;;;;5051676;28;20517;-76
2022/06/03 04:31:02;;;;;;;1999.90;999.90;;;9.70;99.90;;;;;;5064332;28;20094;-76
2022/06/03 04:33:46;;;;;;;1999.90;999.90;;;9.70;99.90;;;;;;5062478;28;20068;-76
2022/06/03 04:36:24;;;;;;;1999.90;999.90;;;9.70;99.90;;;;;;5071783;28;20033;-76
2022/06/03 04:39:11;;;;;;;1999.90;999.90;;;9.70;99.90;;;;;;5060442;28;20043;-76
2022/06/03 04:42:15;;;;;;;1999.90;999.90;;;9.60;99.90;;;;;;5057851;28;20046;-76
2022/06/03 04:45:02;;;;;;;1999.90;999.90;;;9.60;99.90;;;;;;5064033;28;20103;-76
2022/06/03 04:47:27;;;;;;;1999.90;999.90;;;9.70;99.90;;;;;;5069707;28;20044;-76
2022/06/03 04:50:21;;;;;;;1999.90;999.90;;;9.70;99.90;;;;;;5065063;28;20050;-76
2022/06/03 04:52:58;;;;;;;;;;;9.70;99.90;;;;;;5048032;28;20095;-76
2022/06/03 04:55:33;;;;;;;1999.90;999.90;;;9.80;99.90;;;;;;5066796;28;19931;-76
2022/06/03 04:58:50;;;;;;;1999.90;999.90;;;9.90;99.90;;;;;;5061235;28;20402;-76
2022/06/03 05:01:30;;;;;;;1999.90;999.90;;;10.00;99.90;;;;;;5049345;28;20047;-76
2022/06/03 05:04:18;;;;;;;1999.90;999.90;;;10.20;99.90;;;;;;5071622;28;20512;-76
2022/06/03 05:07:22;;;;;;;1999.90;999.90;;;10.30;99.90;;;;;;5075970;28;20472;-76
2022/06/03 05:10:10;;;;;;;1999.90;999.90;;;10.60;99.90;;;;;;5044198;28;20413;-76
2022/06/03 05:13:17;;;;;;;1999.90;999.90;;;11.10;99.90;;;;;;5073175;28;20055;-76
2022/06/03 05:16:05;;;;;;;1999.90;999.90;;;12.60;99.90;;;;;;5068751;28;20043;-75
2022/06/03 05:19:18;;;;;;;1999.90;999.90;;;13.90;99.90;;;;;;5077840;28;20126;-76
2022/06/03 05:22:08;;;;;;;1999.90;999.90;;;14.70;99.90;;;;;;5072908;28;20043;-76
2022/06/03 05:25:00;;;;;;;1999.90;999.90;;;14.60;99.90;;;;;;5077925;28;20482;-76
2022/06/03 05:27:59;;;;;;;1999.90;999.90;;;14.30;99.90;;;;;;5053479;28;20072;-76
2022/06/03 05:30:47;;;;;;;1999.90;999.90;;;13.90;99.90;;;;;;5080571;28;20328;-76
2022/06/03 05:33:35;;;;;;;1999.90;999.90;;;13.50;99.90;;;;;;5070330;28;20044;-76
2022/06/03 05:36:23;;;;;;;1999.90;999.90;;;13.20;99.90;;;;;;5057722;28;20402;-76
2022/06/03 05:39:25;;;;;;;1999.90;999.90;;;13.00;99.90;;;;;;5071888;28;21075;-76
2022/06/03 05:42:29;;;;;;;1999.90;999.90;;;13.00;99.90;;;;;;5054144;28;20051;-76
2022/06/03 05:45:22;;;;;;;1999.90;999.90;;;13.00;99.90;;;;;;4965291;28;20056;-76
2022/06/03 05:47:53;;;;;;;1999.90;999.90;;;13.10;99.90;;;;;;5066740;28;20059;-76
2022/06/03 05:50:46;;;;;;;1999.90;999.90;;;13.10;99.90;;;;;;5064399;28;20047;-75
2022/06/03 05:53:27;;;;;;;1999.90;999.90;;;13.20;99.90;;;;;;5069172;28;20071;-76
2022/06/03 05:56:31;;;;;;;1999.90;999.90;;;13.30;99.90;;;;;;5055990;28;20038;-76
2022/06/03 05:59:32;;;;;;;1999.90;999.90;;;13.40;99.90;;;;;;5081839;28;20071;-75
2022/06/03 06:02:30;;;;;;;1999.90;999.90;;;13.50;99.90;;;;;;5056202;28;20436;-76
2022/06/03 06:05:29;;;;;;;1999.90;999.90;;;14.10;99.90;;;;;;5062692;28;20140;-76
2022/06/03 06:08:07;;;;;;;1999.90;999.90;;;15.20;99.90;;;;;;5071596;28;20040;-76
2022/06/03 06:11:03;;;;;;;1999.90;999.90;;;16.30;99.90;;;;;;5076735;28;20040;-77
2022/06/03 06:14:05;;;;;;;1999.90;999.90;;;17.20;99.90;;;;;;5075045;28;20035;-77
2022/06/03 06:16:40;;;;;;;1999.90;999.90;;;18.10;99.90;;;;;;5075480;28;20128;-77
2022/06/03 06:19:47;;;;;;;1999.90;999.90;;;18.50;99.90;;;;;;5065867;28;20051;-77
2022/06/03 06:22:44;;;;;;;1999.90;999.90;;;19.40;99.90;;;;;;5050665;28;20134;-77
2022/06/03 06:25:33;;;;;;;1999.90;999.90;;;20.00;99.90;;;;;;5059096;28;20075;-78
2022/06/03 06:28:03;;;;;;;1999.90;999.90;;;20.20;99.90;;;;;;5076777;28;20088;-78
2022/06/03 06:30:53;;;;;;;1999.90;999.90;;;20.30;99.90;;;;;;5073844;28;20047;-78
2022/06/03 06:33:32;;;;;;;1999.90;999.90;;;20.40;99.90;;;;;;5052884;28;20140;-77
2022/06/03 06:36:27;;;;;;;1999.90;999.90;;;20.70;98.10;;;;;;5035900;28;20052;-77
2022/06/03 06:39:11;;;;;;;1999.90;999.90;;;20.90;98.60;;;;;;5062673;28;20048;-76
2022/06/03 06:42:01;;;;;;;1999.90;999.90;;;21.30;97.00;;;;;;5082002;28;20040;-78
2022/06/03 06:44:51;;;;;;;1999.90;999.90;;;21.50;97.20;;;;;;5073658;28;20036;-76
2022/06/03 06:47:34;;;;;;;1999.90;999.90;;;21.50;95.30;;;;;;5062688;28;20508;-77
2022/06/03 06:50:21;;;;;;;1999.90;999.90;;;21.70;94.70;;;;;;5068519;28;20493;-76
2022/06/03 06:53:06;;;;;;;1999.90;999.90;;;21.70;91.60;;;;;;5061525;28;20044;-77
2022/06/03 06:55:34;;;;;;;1999.90;999.90;;;21.80;94.10;;;;;;5035750;28;20037;-76
2022/06/03 06:58:04;;;;;;;1999.90;999.90;;;21.90;91.70;;;;;;5033785;28;20045;-76
2022/06/03 07:00:40;;;;;;;1999.90;999.90;;;22.10;92.50;;;;;;5057968;28;20039;-77
2022/06/03 07:03:21;;;;;;;1999.90;999.90;;;22.50;90.50;;;;;;5078245;28;20119;-77
2022/06/03 07:05:56;;;;;;;1999.90;999.90;;;22.70;90.50;;;;;;5034432;28;20047;-77
2022/06/03 07:08:36;;;;;;;1999.90;999.90;;;22.70;88.30;;;;;;5054246;28;20142;-77
2022/06/03 07:11:12;;;;;;;1999.90;999.90;;;22.30;78.80;;;;;;5067173;28;20447;-77
2022/06/03 07:13:51;;;;;;;1999.90;999.90;;;22.30;76.60;;;;;;5063977;28;20044;-77
2022/06/03 07:19:49;;;;;;;1999.90;999.90;;;21.90;77.50;;;;;;5067862;28;20055;-77
2022/06/03 07:22:27;;;;;;;1999.90;999.90;;;21.90;80.00;;;;;;5082502;28;20367;-78
2022/06/03 07:25:11;;;;;;;1999.90;999.90;;;21.90;77.20;;;;;;5063546;28;20125;-77
2022/06/03 07:27:42;;;;;;;1999.90;999.90;;;21.60;76.70;;;;;;5061251;28;20470;-77
2022/06/03 07:30:19;;;;;;;1999.90;999.90;;;21.50;77.90;;;;;;5048137;28;20453;-78
2022/06/03 07:32:57;;;;;;;1999.90;999.90;;;21.60;75.90;;;;;;5063303;28;20553;-76
2022/06/03 07:35:45;;;;;;;1999.90;999.90;;;21.50;73.70;;;;;;5067810;28;20036;-77
2022/06/03 07:38:40;;;;;;;1999.90;999.90;;;21.20;76.20;;;;;;5060207;28;20071;-78
2022/06/03 07:41:39;;;;;;;1999.90;999.90;;;21.50;75.60;;;;;;5060562;28;20409;-80
2022/06/03 07:44:13;;;;;;;1999.90;999.90;;;21.60;75.10;;;;;;5068010;28;20086;-77
2022/06/03 07:46:41;;;;;;;1999.90;999.90;;;22.00;79.20;;;;;;5050092;28;20051;-78
2022/06/03 07:49:08;;;;;;;1999.90;999.90;;;22.30;76.30;;;;;;5067812;28;20059;-77
2022/06/03 07:51:39;;;;;;;1999.90;999.90;;;22.40;76.10;;;;;;5067581;28;20039;-77
2022/06/03 07:54:12;;;;;;;1999.90;999.90;;;22.60;75.60;;;;;;5058779;28;20072;-77
2022/06/03 07:56:39;;;;;;;1999.90;999.90;;;22.90;76.70;;;;;;5038342;28;20124;-77
2022/06/03 07:59:17;;;;;;;1999.90;999.90;;;22.90;69.00;;;;;;5040005;28;20086;-77
2022/06/03 08:01:55;;;;;;;1999.90;999.90;;;22.60;70.40;;;;;;5067689;28;20048;-76
2022/06/03 08:04:33;;;;;;;1999.90;999.90;;;22.40;67.90;;;;;;5060286;28;20041;-76
2022/06/03 08:12:34;;;;;;;1999.90;999.90;;;22.80;68.20;;;;;;5054740;28;20045;-77
2022/06/03 08:15:16;;;;;;;1999.90;999.90;;;22.80;69.60;;;;;;5067401;28;20480;-78
2022/06/03 08:17:44;;;;;;;1999.90;999.90;;;23.00;71.40;;;;;;5041755;28;20044;-77
2022/06/03 08:20:10;;;;;;;1999.90;999.90;;;23.10;71.60;;;;;;5056118;28;20055;-77
2022/06/03 08:22:37;;;;;;;1999.90;999.90;;;23.40;69.20;;;;;;5044326;28;20052;-77
2022/06/03 08:25:05;;;;;;;1999.90;999.90;;;23.80;69.50;;;;;;5063874;28;20057;-78
2022/06/03 08:27:33;;;;;;;1999.90;999.90;;;23.50;66.50;;;;;;5039721;28;20043;-76
2022/06/03 08:30:13;;;;;;;1999.90;999.90;;;23.50;66.50;;;;;;5051271;28;20045;-79
2022/06/03 08:32:42;;;;;;;1999.90;999.90;;;23.20;63.70;;;;;;5056279;28;20074;-77
2022/06/03 08:35:13;;;;;;;1999.90;999.90;;;22.90;65.30;;;;;;5057513;28;20036;-77
2022/06/03 08:37:49;;;;;;;1999.90;999.90;;;22.90;66.50;;;;;;5044185;28;20417;-78
2022/06/03 08:40:41;;;;;;;1999.90;999.90;;;23.10;68.30;;;;;;5046988;28;20132;-76
2022/06/03 08:43:39;;;;;;;1999.90;999.90;;;23.30;66.10;;;;;;5045933;28;20456;-78
2022/06/03 08:46:20;;;;;;;1999.90;999.90;;;23.40;66.10;;;;;;5055668;28;20519;-77
2022/06/03 08:48:48;;;;;;;1999.90;999.90;;;23.30;63.30;;;;;;5056966;28;20044;-78
2022/06/03 08:51:23;;;;;;;1999.90;999.90;;;23.30;66.90;;;;;;5062214;28;20037;-79
2022/06/03 08:54:26;;;;;;;1999.90;999.90;;;23.20;64.10;;;;;;5042478;28;20040;-78
2022/06/03 08:57:02;;;;;;;1999.90;999.90;;;23.30;66.00;;;;;;5052943;28;20413;-78
2022/06/03 08:59:37;;;;;;;1999.90;999.90;;;23.30;63.90;;;;;;5056553;28;20560;-79
2022/06/03 09:02:09;;;;;;;1999.90;999.90;;;23.60;66.40;;;;;;5056207;28;20088;-76
2022/06/03 09:04:44;;;;;;;1999.90;999.90;;;23.80;63.60;;;;;;5051903;28;20114;-78
2022/06/03 09:07:31;;;;;;;1999.90;999.90;;;24.00;61.50;;;;;;5059726;28;20048;-78
2022/06/03 09:10:09;;;;;;;1999.90;999.90;;;23.90;62.70;;;;;;5032242;28;20412;-78
2022/06/03 09:13:20;;;;;;;1999.90;999.90;;;23.80;64.00;;;;;;5035003;28;20033;-79
2022/06/03 09:15:47;;;;;;;1999.90;999.90;;;23.70;61.00;;;;;;4988505;28;20037;-78
2022/06/03 09:18:42;;;;;;;1999.90;999.90;;;23.60;61.70;;;;;;5015537;28;20434;-78
2022/06/03 09:21:17;;;;;;;1999.90;999.90;;;23.60;63.20;;;;;;4962227;28;20053;-77
2022/06/03 09:23:47;;;;;;;1999.90;999.90;;;23.50;61.70;;;;;;4990939;28;20060;-78
2022/06/03 09:26:26;;;;;;;1999.90;999.90;;;23.10;60.80;;;;;;5000262;28;20041;-77
2022/06/03 09:28:53;;;;;;;1999.90;999.90;;;23.00;62.70;;;;;;4996667;28;20045;-78
2022/06/03 09:31:21;;;;;;;1999.90;999.90;;;23.00;62.70;;;;;;4997352;28;20154;-78
2022/06/03 09:33:48;;;;;;;1999.90;999.90;;;23.10;64.30;;;;;;4995454;28;20049;-76
2022/06/03 09:36:18;;;;;;;1999.90;999.90;;;23.50;63.30;;;;;;5002176;28;20116;-77
2022/06/03 09:39:02;;;;;;;1999.90;999.90;;;23.60;63.30;;;;;;5012901;28;20581;-77
2022/06/03 09:41:34;;;;;;;1999.90;999.90;;;23.80;65.40;;;;;;5003166;28;20393;-78
2022/06/03 09:44:03;;;;;;;1999.90;999.90;;;24.00;64.70;;;;;;4995055;28;20038;-78
2022/06/03 09:46:31;;;;;;;1999.90;999.90;;;24.00;64.20;;;;;;5015836;28;20084;-79
2022/06/03 09:48:59;;;;;;;1999.90;999.90;;;24.10;62.90;;;;;;5033988;28;20101;-77
2022/06/03 09:54:38;;;;;;;1999.90;999.90;;;23.90;60.60;;;;;;5044403;28;20057;-78
2022/06/03 09:57:26;;;;;;;1999.90;999.90;;;24.00;65.00;;;;;;5036215;28;20029;-77
2022/06/03 10:00:17;;;;;;;1999.90;999.90;;;24.10;63.70;;;;;;5022565;28;20138;-78
2022/06/03 10:02:43;;;;;;;1999.90;999.90;;;24.00;60.80;;;;;;5027525;28;20051;-76
2022/06/03 10:05:14;;;;;;;1999.90;999.90;;;23.80;61.50;;;;;;5026271;28;20045;-77
2022/06/03 10:07:40;;;;;;;1999.90;999.90;;;23.70;62.00;;;;;;5040702;28;20119;-78
2022/06/03 10:12:53;;;;;;;1999.90;999.90;;;23.60;62.90;;;;;;5047701;28;20056;-77
2022/06/03 10:18:30;;;;;;;1999.90;999.90;;;23.60;61.30;;;;;;5052289;28;20055;-78
2022/06/03 10:21:18;;;;;;;1999.90;999.90;;;23.40;61.80;;;;;;5042497;28;20197;-77
2022/06/03 10:23:48;;;;;;;1999.90;999.90;;;23.40;63.00;;;;;;5046658;28;20055;-77
2022/06/03 10:26:25;;;;;;;1999.90;999.90;;;23.40;63.20;;;;;;5073014;28;20048;-76
2022/06/03 10:28:53;;;;;;;1999.90;999.90;;;23.60;63.80;;;;;;5072715;28;20043;-78
2022/06/03 10:31:27;;;;;;;1999.90;999.90;;;23.80;59.30;;;;;;5047208;28;20036;-76
2022/06/03 10:34:01;;;;;;;1999.90;999.90;;;23.70;60.10;;;;;;5043288;28;20086;-79
2022/06/03 10:36:40;;;;;;;1999.90;999.90;;;23.50;58.70;;;;;;5059894;28;20538;-76
2022/06/03 10:39:09;;;;;;;1999.90;999.90;;;23.20;61.40;;;;;;5055634;28;20082;-76
2022/06/03 10:41:47;;;;;;;1999.90;999.90;;;23.20;60.40;;;;;;5041361;28;20044;-77
2022/06/03 10:44:18;;;;;;;1999.90;999.90;;;23.30;61.90;;;;;;5068302;28;20047;-76
2022/06/03 10:47:07;;;;;;;1999.90;999.90;;;23.10;60.80;;;;;;5076790;28;20451;-78
2022/06/03 10:49:37;;;;;;;1999.90;999.90;;;22.80;62.90;;;;;;5076079;28;20052;-78
2022/06/03 11:03:26;;;;;;;1999.90;999.90;;;23.40;62.20;;;;;;5058307;28;20070;-76
2022/06/03 11:05:52;;;;;;;1999.90;999.90;;;23.50;64.00;;;;;;5050447;28;20746;-76
2022/06/03 11:08:19;;;;;;;1999.90;999.90;;;23.80;62.80;;;;;;5056947;28;20040;-78
2022/06/03 11:10:51;;;;;;;1999.90;999.90;;;23.60;60.40;;;;;;5058112;28;20482;-78
2022/06/03 11:13:32;;;;;;;1999.90;999.90;;;23.30;62.70;;;;;;5044987;28;20043;-76
2022/06/03 11:16:13;;;;;;;1999.90;999.90;;;23.00;60.50;;;;;;5053720;28;20465;-76
2022/06/03 11:18:41;;;;;;;1999.90;999.90;;;22.50;62.30;;;;;;5063916;28;20497;-77
2022/06/03 11:21:22;;;;;;;1999.90;999.90;;;22.40;61.80;;;;;;5043190;28;20615;-75
2022/06/03 11:23:49;;;;;;;1999.90;999.90;;;22.40;62.70;;;;;;5053815;28;20060;-77
2022/06/03 11:26:14;;;;;;;1999.90;999.90;;;22.60;64.70;;;;;;5054830;28;20478;-76
2022/06/03 11:28:48;;;;;;;1999.90;999.90;;;23.10;66.10;;;;;;5069509;28;20044;-76
2022/06/03 11:31:21;;;;;;;1999.90;999.90;;;23.40;62.40;;;;;;5064023;28;20148;-77
2022/06/03 11:34:14;;;;;;;1999.90;999.90;;;23.60;63.30;;;;;;5051567;28;20043;-76
2022/06/03 11:37:02;;;;;;;1999.90;999.90;;;23.80;62.80;;;;;;5033300;28;20373;-76
2022/06/03 11:39:32;;;;;;;1999.90;999.90;;;23.90;61.60;;;;;;5062052;28;20041;-76
2022/06/03 11:42:00;;;;;;;1999.90;999.90;;;23.90;62.80;;;;;;5052117;28;20536;-78
2022/06/03 11:44:45;;;;;;;1999.90;999.90;;;23.80;59.50;;;;;;5046968;28;20048;-77
2022/06/03 11:47:19;;;;;;;1999.90;999.90;;;23.50;61.20;;;;;;5058696;28;20044;-77
2022/06/03 11:49:45;;;;;;;1999.90;999.90;;;23.70;63.00;;;;;;5061866;28;20036;-76
2022/06/03 11:52:11;;;;;;;1999.90;999.90;;;23.80;62.40;;;;;;5034356;28;20032;-77
2022/06/03 11:54:39;;;;;;;1999.90;999.90;;;23.80;62.20;;;;;;5062070;28;20043;-77
2022/06/03 11:57:06;;;;;;;1999.90;999.90;;;23.80;59.80;;;;;;5068836;28;20036;-77
2022/06/03 11:59:39;;;;;;;1999.90;999.90;;;23.60;59.00;;;;;;5060088;28;20046;-77
2022/06/03 12:02:14;;;;;;;1999.90;999.90;;;23.60;59.80;;;;;;5066201;28;20047;-78
2022/06/03 12:04:43;;;;;;;1999.90;999.90;;;23.70;60.90;;;;;;5048542;28;20120;-76
2022/06/03 12:07:37;;;;;;;1999.90;999.90;;;23.30;59.20;;;;;;5063058;28;20071;-77
2022/06/03 12:10:22;;;;;;;1999.90;999.90;;;23.00;60.80;;;;;;5049862;28;20052;-76
2022/06/03 12:15:50;;;;;;;1999.90;999.90;;;22.80;63.30;;;;;;5059919;28;20059;-76
2022/06/03 12:18:30;;;;;;;1999.90;999.90;;;23.10;62.00;;;;;;5047683;28;20112;-77
2022/06/03 12:20:57;;;;;;;1999.90;999.90;;;23.40;61.20;;;;;;5054074;28;20051;-77
2022/06/03 12:23:22;;;;;;;1999.90;999.90;;;23.60;61.10;;;;;;5053753;28;20507;-78
2022/06/03 12:25:55;;;;;;;1999.90;999.90;;;23.90;61.80;;;;;;5083098;28;20079;-77
2022/06/03 12:28:30;;;;;;;1999.90;999.90;;;23.90;58.80;;;;;;5057606;28;20371;-77
2022/06/03 12:31:06;;;;;;;1999.90;999.90;;;23.50;60.30;;;;;;5037315;28;20508;-77
2022/06/03 12:33:58;;;;;;;1999.90;999.90;;;23.50;60.40;;;;;;5047597;28;20049;-79
2022/06/03 12:36:24;;;;;;;1999.90;999.90;;;23.00;56.30;;;;;;5049920;28;20051;-77
2022/06/03 12:39:00;;;;;;;1999.90;999.90;;;22.70;59.60;;;;;;5070142;28;20409;-76
2022/06/03 12:41:49;;;;;;;1999.90;999.90;;;22.80;64.00;;;;;;5053455;28;20071;-77
2022/06/03 12:45:13;;;;;;;1999.90;999.90;;;23.00;60.30;;;;;;5050286;28;20093;-79
2022/06/03 12:47:45;;;;;;;1999.90;999.90;;;23.00;60.00;;;;;;4991600;28;20049;-79
2022/06/03 12:51:03;;;;;;;1999.90;999.90;;;23.30;60.50;;;;;;5059862;28;20057;-77
2022/06/03 12:53:38;;;;;;;1999.90;999.90;;;23.40;59.40;;;;;;5001892;28;20720;-76
2022/06/03 12:56:08;;;;;;;1999.90;999.90;;;23.40;60.50;;;;;;5042400;28;20044;-77
2022/06/03 12:58:45;;;;;;;1999.90;999.90;;;23.20;60.40;;;;;;5060888;28;20044;-76
2022/06/03 13:01:12;;;;;;;1999.90;999.90;;;22.80;61.70;;;;;;5064072;28;20040;-77
2022/06/03 13:03:40;;;;;;;1999.90;999.90;;;22.90;61.30;;;;;;5068153;28;20114;-77
2022/06/03 13:06:09;;;;;;;1999.90;999.90;;;23.00;59.10;;;;;;5054738;28;20028;-77
2022/06/03 13:08:34;;;;;;;1999.90;999.90;;;23.00;59.70;;;;;;5060860;28;20546;-77
2022/06/03 13:11:30;;;;;;;1999.90;999.90;;;23.10;60.80;;;;;;5063736;28;20092;-77
2022/06/03 13:13:56;;;;;;;1999.90;999.90;;;23.20;61.60;;;;;;5040593;28;20032;-77
2022/06/03 13:16:35;;;;;;;1999.90;999.90;;;23.10;61.40;;;;;;5067053;28;20036;-79
2022/06/03 13:19:17;;;;;;;1999.90;999.90;;;22.70;62.10;;;;;;5045641;28;20045;-78
2022/06/03 13:21:59;;;;;;;1999.90;999.90;;;22.70;63.80;;;;;;5041868;28;20047;-76
2022/06/03 13:24:30;;;;;;;1999.90;999.90;;;22.90;63.40;;;;;;5062030;28;20060;-77
2022/06/03 13:27:34;;;;;;;1999.90;999.90;;;22.60;63.10;;;;;;5057225;28;20102;-77
2022/06/03 13:30:14;;;;;;;1999.90;999.90;;;22.40;64.90;;;;;;4965778;28;20129;-76
2022/06/03 13:33:13;;;;;;;1999.90;999.90;;;22.50;67.30;;;;;;4971416;28;20165;-77
2022/06/03 13:35:58;;;;;;;1999.90;999.90;;;22.80;65.50;;;;;;4961898;28;20038;-77
2022/06/03 13:38:37;;;;;;;1999.90;999.90;;;22.90;65.20;;;;;;4980301;28;20054;-77
2022/06/03 13:45:08;;;;;;;1999.90;999.90;;;22.90;66.20;;;;;;4973926;28;20047;-78
2022/06/03 13:47:50;;;;;;;1999.90;999.90;;;23.00;66.40;;;;;;4967475;28;20050;-76
2022/06/03 13:50:17;;;;;;;1999.90;999.90;;;22.90;63.80;;;;;;4958204;28;20120;-77
2022/06/03 13:52:52;;;;;;;1999.90;999.90;;;22.80;65.40;;;;;;4953834;28;20428;-77